sensor_id;sensor_type;location;lat;lon;timestamp;P1;durP1;ratioP1;P2;durP2;ratioP2
26060;SDS011;36331;51.378;0.018;2023-04-24T00:00:13;42.13;;;22.70;;
26060;SDS011;36331;51.378;0.018;2023-04-24T00:02:42;44.50;;;23.58;;
26060;SDS011;36331;51.378;0.018;2023-04-24T00:05:14;43.55;;;22.30;;
26060;SDS011;36331;51.378;0.018;2023-04-24T00:07:44;49.08;;;24.55;;
26060;SDS011;36331;51.378;0.018;2023-04-24T00:10:14;44.58;;;22.70;;
26060;SDS011;36331;51.378;0.018;2023-04-24T00:12:43;42.08;;;22.30;;
26060;SDS011;36331;51.378;0.018;2023-04-24T00:15:14;48.00;;;23.52;;
26060;SDS011;36331;51.378;0.018;2023-04-24T00:17:45;51.83;;;23.10;;
26060;SDS011;36331;51.378;0.018;2023-04-24T00:20:15;48.72;;;22.67;;
26060;SDS011;36331;51.378;0.018;2023-04-24T00:22:46;46.67;;;24.70;;
26060;SDS011;36331;51.378;0.018;2023-04-24T00:25:17;46.80;;;22.52;;
26060;SDS011;36331;51.378;0.018;2023-04-24T00:27:47;42.95;;;22.40;;
26060;SDS011;36331;51.378;0.018;2023-04-24T00:30:18;40.97;;;20.45;;
26060;SDS011;36331;51.378;0.018;2023-04-24T00:32:48;44.92;;;22.15;;
26060;SDS011;36331;51.378;0.018;2023-04-24T00:35:18;40.38;;;21.20;;
26060;SDS011;36331;51.378;0.018;2023-04-24T00:37:48;43.95;;;22.08;;
26060;SDS011;36331;51.378;0.018;2023-04-24T00:40:17;46.45;;;23.20;;
26060;SDS011;36331;51.378;0.018;2023-04-24T00:42:46;46.50;;;22.15;;
26060;SDS011;36331;51.378;0.018;2023-04-24T00:45:16;44.05;;;21.67;;
26060;SDS011;36331;51.378;0.018;2023-04-24T00:47:47;49.33;;;22.65;;
26060;SDS011;36331;51.378;0.018;2023-04-24T00:50:17;39.70;;;21.35;;
26060;SDS011;36331;51.378;0.018;2023-04-24T00:52:48;43.70;;;22.47;;
26060;SDS011;36331;51.378;0.018;2023-04-24T00:55:19;48.22;;;22.33;;
26060;SDS011;36331;51.378;0.018;2023-04-24T00:57:48;47.13;;;21.95;;
26060;SDS011;36331;51.378;0.018;2023-04-24T01:00:18;41.10;;;21.23;;
26060;SDS011;36331;51.378;0.018;2023-04-24T01:02:49;45.53;;;22.45;;
26060;SDS011;36331;51.378;0.018;2023-04-24T01:05:20;47.22;;;23.33;;
26060;SDS011;36331;51.378;0.018;2023-04-24T01:07:50;49.53;;;22.30;;
26060;SDS011;36331;51.378;0.018;2023-04-24T01:10:19;49.65;;;21.95;;
26060;SDS011;36331;51.378;0.018;2023-04-24T01:12:52;53.13;;;23.40;;
26060;SDS011;36331;51.378;0.018;2023-04-24T01:15:22;48.78;;;20.75;;
26060;SDS011;36331;51.378;0.018;2023-04-24T01:17:53;47.92;;;21.50;;
26060;SDS011;36331;51.378;0.018;2023-04-24T01:20:23;53.30;;;23.70;;
26060;SDS011;36331;51.378;0.018;2023-04-24T01:22:55;47.58;;;21.02;;
26060;SDS011;36331;51.378;0.018;2023-04-24T01:25:25;46.77;;;21.03;;
26060;SDS011;36331;51.378;0.018;2023-04-24T01:27:56;50.10;;;22.33;;
26060;SDS011;36331;51.378;0.018;2023-04-24T01:30:26;43.47;;;20.92;;
26060;SDS011;36331;51.378;0.018;2023-04-24T01:32:57;42.37;;;20.83;;
26060;SDS011;36331;51.378;0.018;2023-04-24T01:35:28;47.25;;;21.95;;
26060;SDS011;36331;51.378;0.018;2023-04-24T01:37:59;48.55;;;22.33;;
26060;SDS011;36331;51.378;0.018;2023-04-24T01:40:28;48.90;;;20.33;;
26060;SDS011;36331;51.378;0.018;2023-04-24T01:42:58;47.22;;;22.48;;
26060;SDS011;36331;51.378;0.018;2023-04-24T01:45:29;46.05;;;20.58;;
26060;SDS011;36331;51.378;0.018;2023-04-24T01:48:00;46.95;;;20.85;;
26060;SDS011;36331;51.378;0.018;2023-04-24T01:50:33;42.92;;;20.77;;
26060;SDS011;36331;51.378;0.018;2023-04-24T01:53:06;47.53;;;21.63;;
26060;SDS011;36331;51.378;0.018;2023-04-24T01:55:36;45.47;;;21.95;;
26060;SDS011;36331;51.378;0.018;2023-04-24T01:58:05;42.42;;;20.40;;
26060;SDS011;36331;51.378;0.018;2023-04-24T02:00:35;41.55;;;20.35;;
26060;SDS011;36331;51.378;0.018;2023-04-24T02:03:05;46.63;;;20.30;;
26060;SDS011;36331;51.378;0.018;2023-04-24T02:05:35;46.25;;;23.50;;
26060;SDS011;36331;51.378;0.018;2023-04-24T02:08:06;45.60;;;20.88;;
26060;SDS011;36331;51.378;0.018;2023-04-24T02:10:37;50.05;;;23.33;;
26060;SDS011;36331;51.378;0.018;2023-04-24T02:13:07;47.40;;;21.05;;
26060;SDS011;36331;51.378;0.018;2023-04-24T02:15:37;43.00;;;20.98;;
26060;SDS011;36331;51.378;0.018;2023-04-24T02:18:06;40.45;;;19.98;;
26060;SDS011;36331;51.378;0.018;2023-04-24T02:20:38;44.53;;;20.25;;
26060;SDS011;36331;51.378;0.018;2023-04-24T02:23:09;44.80;;;21.20;;
26060;SDS011;36331;51.378;0.018;2023-04-24T02:28:09;48.90;;;21.13;;
26060;SDS011;36331;51.378;0.018;2023-04-24T02:30:39;51.35;;;21.55;;
26060;SDS011;36331;51.378;0.018;2023-04-24T02:33:08;48.17;;;21.25;;
26060;SDS011;36331;51.378;0.018;2023-04-24T02:35:37;45.05;;;21.27;;
26060;SDS011;36331;51.378;0.018;2023-04-24T02:38:06;45.30;;;20.75;;
26060;SDS011;36331;51.378;0.018;2023-04-24T02:40:38;41.65;;;20.98;;
26060;SDS011;36331;51.378;0.018;2023-04-24T02:43:09;44.75;;;20.77;;
26060;SDS011;36331;51.378;0.018;2023-04-24T02:45:39;41.03;;;19.17;;
26060;SDS011;36331;51.378;0.018;2023-04-24T02:48:08;46.92;;;22.67;;
26060;SDS011;36331;51.378;0.018;2023-04-24T02:50:37;42.88;;;20.50;;
26060;SDS011;36331;51.378;0.018;2023-04-24T02:53:07;38.25;;;19.65;;
26060;SDS011;36331;51.378;0.018;2023-04-24T02:55:38;45.30;;;20.95;;
26060;SDS011;36331;51.378;0.018;2023-04-24T02:58:07;46.83;;;20.37;;
26060;SDS011;36331;51.378;0.018;2023-04-24T03:00:37;46.20;;;20.38;;
26060;SDS011;36331;51.378;0.018;2023-04-24T03:03:07;51.03;;;21.33;;
26060;SDS011;36331;51.378;0.018;2023-04-24T03:05:37;44.00;;;21.02;;
26060;SDS011;36331;51.378;0.018;2023-04-24T03:10:40;43.08;;;20.13;;
26060;SDS011;36331;51.378;0.018;2023-04-24T03:13:15;42.00;;;20.80;;
26060;SDS011;36331;51.378;0.018;2023-04-24T03:15:45;41.60;;;18.67;;
26060;SDS011;36331;51.378;0.018;2023-04-24T03:18:14;44.88;;;20.17;;
26060;SDS011;36331;51.378;0.018;2023-04-24T03:20:45;43.55;;;19.05;;
26060;SDS011;36331;51.378;0.018;2023-04-24T03:23:15;40.72;;;18.20;;
26060;SDS011;36331;51.378;0.018;2023-04-24T03:25:49;39.75;;;19.00;;
26060;SDS011;36331;51.378;0.018;2023-04-24T03:28:19;38.03;;;19.30;;
26060;SDS011;36331;51.378;0.018;2023-04-24T03:30:57;38.05;;;18.02;;
26060;SDS011;36331;51.378;0.018;2023-04-24T03:33:31;35.47;;;16.48;;
26060;SDS011;36331;51.378;0.018;2023-04-24T03:36:01;37.95;;;17.77;;
26060;SDS011;36331;51.378;0.018;2023-04-24T03:38:39;31.33;;;15.85;;
26060;SDS011;36331;51.378;0.018;2023-04-24T03:41:26;36.47;;;16.90;;
26060;SDS011;36331;51.378;0.018;2023-04-24T03:44:09;34.42;;;17.40;;
26060;SDS011;36331;51.378;0.018;2023-04-24T03:46:40;33.10;;;17.83;;
26060;SDS011;36331;51.378;0.018;2023-04-24T03:49:10;30.42;;;16.42;;
26060;SDS011;36331;51.378;0.018;2023-04-24T03:51:43;29.45;;;15.63;;
26060;SDS011;36331;51.378;0.018;2023-04-24T03:54:20;34.08;;;16.30;;
26060;SDS011;36331;51.378;0.018;2023-04-24T03:56:55;34.88;;;16.90;;
26060;SDS011;36331;51.378;0.018;2023-04-24T03:59:26;34.08;;;16.98;;
26060;SDS011;36331;51.378;0.018;2023-04-24T04:02:24;36.20;;;17.55;;
26060;SDS011;36331;51.378;0.018;2023-04-24T04:04:54;39.65;;;19.20;;
26060;SDS011;36331;51.378;0.018;2023-04-24T04:07:26;35.17;;;17.58;;
26060;SDS011;36331;51.378;0.018;2023-04-24T04:09:57;38.05;;;18.88;;
26060;SDS011;36331;51.378;0.018;2023-04-24T04:12:28;38.97;;;18.67;;
26060;SDS011;36331;51.378;0.018;2023-04-24T04:14:57;37.00;;;17.73;;
26060;SDS011;36331;51.378;0.018;2023-04-24T04:17:27;40.65;;;18.65;;
26060;SDS011;36331;51.378;0.018;2023-04-24T04:19:58;41.65;;;18.38;;
26060;SDS011;36331;51.378;0.018;2023-04-24T04:22:32;38.63;;;16.98;;
26060;SDS011;36331;51.378;0.018;2023-04-24T04:25:02;34.88;;;17.40;;
26060;SDS011;36331;51.378;0.018;2023-04-24T04:27:35;34.35;;;17.42;;
26060;SDS011;36331;51.378;0.018;2023-04-24T04:30:10;36.03;;;16.65;;
26060;SDS011;36331;51.378;0.018;2023-04-24T04:32:49;37.05;;;17.77;;
26060;SDS011;36331;51.378;0.018;2023-04-24T04:35:18;43.65;;;19.02;;
26060;SDS011;36331;51.378;0.018;2023-04-24T04:37:51;37.95;;;17.02;;
26060;SDS011;36331;51.378;0.018;2023-04-24T04:40:34;36.67;;;17.08;;
26060;SDS011;36331;51.378;0.018;2023-04-24T04:43:07;31.70;;;16.27;;
26060;SDS011;36331;51.378;0.018;2023-04-24T04:45:43;32.25;;;17.02;;
26060;SDS011;36331;51.378;0.018;2023-04-24T04:48:31;33.95;;;16.05;;
26060;SDS011;36331;51.378;0.018;2023-04-24T04:51:04;32.03;;;16.90;;
26060;SDS011;36331;51.378;0.018;2023-04-24T04:53:35;35.50;;;16.10;;
26060;SDS011;36331;51.378;0.018;2023-04-24T04:56:06;34.85;;;16.48;;
26060;SDS011;36331;51.378;0.018;2023-04-24T04:58:41;33.53;;;15.80;;
26060;SDS011;36331;51.378;0.018;2023-04-24T05:01:15;35.97;;;17.55;;
26060;SDS011;36331;51.378;0.018;2023-04-24T05:06:16;38.38;;;17.02;;
26060;SDS011;36331;51.378;0.018;2023-04-24T05:08:48;38.40;;;17.30;;
26060;SDS011;36331;51.378;0.018;2023-04-24T05:11:29;31.45;;;16.75;;
26060;SDS011;36331;51.378;0.018;2023-04-24T05:14:02;38.13;;;17.95;;
26060;SDS011;36331;51.378;0.018;2023-04-24T05:16:35;37.58;;;17.67;;
26060;SDS011;36331;51.378;0.018;2023-04-24T05:19:06;35.92;;;17.15;;
26060;SDS011;36331;51.378;0.018;2023-04-24T05:21:39;37.65;;;17.80;;
26060;SDS011;36331;51.378;0.018;2023-04-24T05:24:10;39.50;;;19.15;;
26060;SDS011;36331;51.378;0.018;2023-04-24T05:26:58;40.28;;;18.65;;
26060;SDS011;36331;51.378;0.018;2023-04-24T05:29:35;46.78;;;20.77;;
26060;SDS011;36331;51.378;0.018;2023-04-24T05:32:05;42.67;;;19.35;;
26060;SDS011;36331;51.378;0.018;2023-04-24T05:34:34;42.15;;;19.08;;
26060;SDS011;36331;51.378;0.018;2023-04-24T05:37:04;36.88;;;18.17;;
26060;SDS011;36331;51.378;0.018;2023-04-24T05:39:37;37.00;;;18.50;;
26060;SDS011;36331;51.378;0.018;2023-04-24T05:42:09;39.88;;;17.67;;
26060;SDS011;36331;51.378;0.018;2023-04-24T05:44:41;40.58;;;19.50;;
26060;SDS011;36331;51.378;0.018;2023-04-24T05:47:10;38.92;;;19.63;;
26060;SDS011;36331;51.378;0.018;2023-04-24T05:49:40;39.85;;;18.83;;
26060;SDS011;36331;51.378;0.018;2023-04-24T05:52:10;36.72;;;18.13;;
26060;SDS011;36331;51.378;0.018;2023-04-24T05:54:40;38.72;;;18.13;;
26060;SDS011;36331;51.378;0.018;2023-04-24T05:57:12;36.88;;;16.45;;
26060;SDS011;36331;51.378;0.018;2023-04-24T05:59:53;34.25;;;16.80;;
26060;SDS011;36331;51.378;0.018;2023-04-24T06:02:27;40.45;;;18.35;;
26060;SDS011;36331;51.378;0.018;2023-04-24T06:05:03;40.40;;;18.63;;
26060;SDS011;36331;51.378;0.018;2023-04-24T06:07:33;36.28;;;16.98;;
26060;SDS011;36331;51.378;0.018;2023-04-24T06:10:05;35.42;;;15.77;;
26060;SDS011;36331;51.378;0.018;2023-04-24T06:12:41;35.72;;;16.13;;
26060;SDS011;36331;51.378;0.018;2023-04-24T06:15:17;40.85;;;17.50;;
26060;SDS011;36331;51.378;0.018;2023-04-24T06:17:53;32.00;;;15.05;;
26060;SDS011;36331;51.378;0.018;2023-04-24T06:20:24;35.03;;;16.38;;
26060;SDS011;36331;51.378;0.018;2023-04-24T06:22:56;32.30;;;15.93;;
26060;SDS011;36331;51.378;0.018;2023-04-24T06:25:26;38.53;;;16.60;;
26060;SDS011;36331;51.378;0.018;2023-04-24T06:27:56;35.38;;;16.30;;
26060;SDS011;36331;51.378;0.018;2023-04-24T06:30:27;38.28;;;15.68;;
26060;SDS011;36331;51.378;0.018;2023-04-24T06:32:56;43.33;;;17.57;;
26060;SDS011;36331;51.378;0.018;2023-04-24T06:38:07;29.98;;;10.95;;
26060;SDS011;36331;51.378;0.018;2023-04-24T06:40:37;19.83;;;6.57;;
26060;SDS011;36331;51.378;0.018;2023-04-24T06:43:07;26.40;;;9.15;;
26060;SDS011;36331;51.378;0.018;2023-04-24T06:45:39;21.77;;;7.00;;
26060;SDS011;36331;51.378;0.018;2023-04-24T06:48:16;20.98;;;7.00;;
26060;SDS011;36331;51.378;0.018;2023-04-24T06:50:45;18.95;;;5.82;;
26060;SDS011;36331;51.378;0.018;2023-04-24T06:53:14;19.35;;;5.70;;
26060;SDS011;36331;51.378;0.018;2023-04-24T06:55:44;20.90;;;6.72;;
26060;SDS011;36331;51.378;0.018;2023-04-24T06:58:14;28.77;;;8.27;;
26060;SDS011;36331;51.378;0.018;2023-04-24T07:00:46;27.02;;;7.55;;
26060;SDS011;36331;51.378;0.018;2023-04-24T07:03:15;23.17;;;6.38;;
26060;SDS011;36331;51.378;0.018;2023-04-24T07:05:45;21.98;;;5.72;;
26060;SDS011;36331;51.378;0.018;2023-04-24T07:08:15;19.33;;;4.72;;
26060;SDS011;36331;51.378;0.018;2023-04-24T07:10:45;19.38;;;4.10;;
26060;SDS011;36331;51.378;0.018;2023-04-24T07:13:15;21.27;;;5.53;;
26060;SDS011;36331;51.378;0.018;2023-04-24T07:15:46;19.48;;;4.57;;
26060;SDS011;36331;51.378;0.018;2023-04-24T07:18:18;16.27;;;4.35;;
26060;SDS011;36331;51.378;0.018;2023-04-24T07:20:47;13.23;;;3.63;;
26060;SDS011;36331;51.378;0.018;2023-04-24T07:23:17;21.50;;;5.28;;
26060;SDS011;36331;51.378;0.018;2023-04-24T07:25:47;16.48;;;3.95;;
26060;SDS011;36331;51.378;0.018;2023-04-24T07:28:16;17.17;;;4.15;;
26060;SDS011;36331;51.378;0.018;2023-04-24T07:30:49;16.10;;;4.53;;
26060;SDS011;36331;51.378;0.018;2023-04-24T07:33:21;13.52;;;3.92;;
26060;SDS011;36331;51.378;0.018;2023-04-24T07:35:50;22.17;;;5.82;;
26060;SDS011;36331;51.378;0.018;2023-04-24T07:38:20;17.02;;;4.47;;
26060;SDS011;36331;51.378;0.018;2023-04-24T07:40:49;17.98;;;5.47;;
26060;SDS011;36331;51.378;0.018;2023-04-24T07:43:22;14.15;;;4.20;;
26060;SDS011;36331;51.378;0.018;2023-04-24T07:45:54;16.38;;;4.68;;
26060;SDS011;36331;51.378;0.018;2023-04-24T07:48:24;16.30;;;4.57;;
26060;SDS011;36331;51.378;0.018;2023-04-24T07:50:53;21.63;;;5.50;;
26060;SDS011;36331;51.378;0.018;2023-04-24T07:53:23;15.20;;;4.35;;
26060;SDS011;36331;51.378;0.018;2023-04-24T07:55:53;13.65;;;4.07;;
26060;SDS011;36331;51.378;0.018;2023-04-24T07:58:23;14.73;;;4.68;;
26060;SDS011;36331;51.378;0.018;2023-04-24T08:00:54;21.08;;;5.45;;
26060;SDS011;36331;51.378;0.018;2023-04-24T08:03:23;17.27;;;4.25;;
26060;SDS011;36331;51.378;0.018;2023-04-24T08:05:53;20.88;;;5.47;;
26060;SDS011;36331;51.378;0.018;2023-04-24T08:08:22;16.95;;;4.78;;
26060;SDS011;36331;51.378;0.018;2023-04-24T08:10:52;20.00;;;5.15;;
26060;SDS011;36331;51.378;0.018;2023-04-24T08:13:21;17.30;;;4.72;;
26060;SDS011;36331;51.378;0.018;2023-04-24T08:15:51;20.45;;;4.95;;
26060;SDS011;36331;51.378;0.018;2023-04-24T08:21:50;17.40;;;4.50;;
26060;SDS011;36331;51.378;0.018;2023-04-24T08:24:23;17.52;;;5.30;;
26060;SDS011;36331;51.378;0.018;2023-04-24T08:26:55;21.10;;;4.97;;
26060;SDS011;36331;51.378;0.018;2023-04-24T08:29:35;12.77;;;3.20;;
26060;SDS011;36331;51.378;0.018;2023-04-24T08:32:05;18.13;;;3.72;;
26060;SDS011;36331;51.378;0.018;2023-04-24T08:34:35;20.85;;;5.07;;
26060;SDS011;36331;51.378;0.018;2023-04-24T08:37:11;19.40;;;4.57;;
26060;SDS011;36331;51.378;0.018;2023-04-24T08:39:41;16.67;;;4.63;;
26060;SDS011;36331;51.378;0.018;2023-04-24T08:42:23;18.77;;;4.80;;
26060;SDS011;36331;51.378;0.018;2023-04-24T08:44:53;22.52;;;5.43;;
26060;SDS011;36331;51.378;0.018;2023-04-24T08:47:29;20.35;;;5.32;;
26060;SDS011;36331;51.378;0.018;2023-04-24T08:50:02;24.50;;;5.55;;
26060;SDS011;36331;51.378;0.018;2023-04-24T08:52:35;20.50;;;5.03;;
26060;SDS011;36331;51.378;0.018;2023-04-24T08:55:05;16.35;;;4.20;;
26060;SDS011;36331;51.378;0.018;2023-04-24T08:57:36;17.25;;;4.75;;
26060;SDS011;36331;51.378;0.018;2023-04-24T09:00:08;22.77;;;6.13;;
26060;SDS011;36331;51.378;0.018;2023-04-24T09:02:39;23.88;;;6.70;;
26060;SDS011;36331;51.378;0.018;2023-04-24T09:05:12;15.63;;;4.53;;
26060;SDS011;36331;51.378;0.018;2023-04-24T09:07:44;12.93;;;3.72;;
26060;SDS011;36331;51.378;0.018;2023-04-24T09:10:16;20.63;;;5.63;;
26060;SDS011;36331;51.378;0.018;2023-04-24T09:12:46;20.55;;;5.68;;
26060;SDS011;36331;51.378;0.018;2023-04-24T09:15:17;22.02;;;6.47;;
26060;SDS011;36331;51.378;0.018;2023-04-24T09:17:48;18.05;;;5.68;;
26060;SDS011;36331;51.378;0.018;2023-04-24T09:20:18;18.15;;;5.57;;
26060;SDS011;36331;51.378;0.018;2023-04-24T09:22:52;19.08;;;5.95;;
26060;SDS011;36331;51.378;0.018;2023-04-24T09:25:24;25.45;;;7.05;;
26060;SDS011;36331;51.378;0.018;2023-04-24T09:28:05;15.27;;;4.82;;
26060;SDS011;36331;51.378;0.018;2023-04-24T09:30:38;20.42;;;5.60;;
26060;SDS011;36331;51.378;0.018;2023-04-24T09:33:10;26.17;;;7.20;;
26060;SDS011;36331;51.378;0.018;2023-04-24T09:35:40;18.92;;;6.05;;
26060;SDS011;36331;51.378;0.018;2023-04-24T09:38:13;21.52;;;6.15;;
26060;SDS011;36331;51.378;0.018;2023-04-24T09:40:42;21.08;;;5.90;;
26060;SDS011;36331;51.378;0.018;2023-04-24T09:43:12;24.42;;;6.90;;
26060;SDS011;36331;51.378;0.018;2023-04-24T09:45:42;22.83;;;5.82;;
26060;SDS011;36331;51.378;0.018;2023-04-24T09:48:13;20.67;;;5.67;;
26060;SDS011;36331;51.378;0.018;2023-04-24T09:50:45;14.00;;;4.63;;
26060;SDS011;36331;51.378;0.018;2023-04-24T09:56:09;15.25;;;4.15;;
26060;SDS011;36331;51.378;0.018;2023-04-24T09:58:55;20.13;;;6.05;;
26060;SDS011;36331;51.378;0.018;2023-04-24T10:01:41;16.02;;;5.43;;
26060;SDS011;36331;51.378;0.018;2023-04-24T10:04:15;20.67;;;5.55;;
26060;SDS011;36331;51.378;0.018;2023-04-24T10:06:49;23.50;;;7.15;;
26060;SDS011;36331;51.378;0.018;2023-04-24T10:09:19;24.17;;;7.32;;
26060;SDS011;36331;51.378;0.018;2023-04-24T10:11:50;21.83;;;6.60;;
26060;SDS011;36331;51.378;0.018;2023-04-24T10:14:21;24.27;;;7.35;;
26060;SDS011;36331;51.378;0.018;2023-04-24T10:16:52;25.23;;;7.35;;
26060;SDS011;36331;51.378;0.018;2023-04-24T10:19:22;20.98;;;6.80;;
26060;SDS011;36331;51.378;0.018;2023-04-24T10:21:54;25.63;;;7.00;;
26060;SDS011;36331;51.378;0.018;2023-04-24T10:24:24;26.33;;;7.07;;
26060;SDS011;36331;51.378;0.018;2023-04-24T10:26:55;16.38;;;5.97;;
26060;SDS011;36331;51.378;0.018;2023-04-24T10:29:25;22.00;;;7.15;;
26060;SDS011;36331;51.378;0.018;2023-04-24T10:31:56;26.45;;;8.05;;
26060;SDS011;36331;51.378;0.018;2023-04-24T10:34:25;21.58;;;6.43;;
26060;SDS011;36331;51.378;0.018;2023-04-24T10:36:54;20.83;;;6.97;;
26060;SDS011;36331;51.378;0.018;2023-04-24T10:39:24;29.60;;;8.45;;
26060;SDS011;36331;51.378;0.018;2023-04-24T10:41:55;30.00;;;8.43;;
26060;SDS011;36331;51.378;0.018;2023-04-24T10:44:27;25.65;;;7.35;;
26060;SDS011;36331;51.378;0.018;2023-04-24T10:47:04;24.42;;;7.55;;
26060;SDS011;36331;51.378;0.018;2023-04-24T10:49:35;27.27;;;8.10;;
26060;SDS011;36331;51.378;0.018;2023-04-24T10:52:04;26.17;;;8.02;;
26060;SDS011;36331;51.378;0.018;2023-04-24T10:54:34;23.88;;;6.28;;
26060;SDS011;36331;51.378;0.018;2023-04-24T11:02:40;30.42;;;7.53;;
26060;SDS011;36331;51.378;0.018;2023-04-24T11:05:16;20.50;;;6.60;;
26060;SDS011;36331;51.378;0.018;2023-04-24T11:10:33;27.63;;;7.90;;
26060;SDS011;36331;51.378;0.018;2023-04-24T11:13:06;23.88;;;7.22;;
26060;SDS011;36331;51.378;0.018;2023-04-24T11:15:38;22.80;;;6.68;;
26060;SDS011;36331;51.378;0.018;2023-04-24T11:18:17;21.23;;;5.93;;
26060;SDS011;36331;51.378;0.018;2023-04-24T11:20:47;27.17;;;7.80;;
26060;SDS011;36331;51.378;0.018;2023-04-24T11:23:16;22.95;;;7.10;;
26060;SDS011;36331;51.378;0.018;2023-04-24T11:25:52;22.83;;;6.43;;
26060;SDS011;36331;51.378;0.018;2023-04-24T11:28:46;25.00;;;6.95;;
26060;SDS011;36331;51.378;0.018;2023-04-24T11:31:35;26.33;;;7.45;;
26060;SDS011;36331;51.378;0.018;2023-04-24T11:34:10;22.02;;;7.25;;
26060;SDS011;36331;51.378;0.018;2023-04-24T11:36:42;16.05;;;5.95;;
26060;SDS011;36331;51.378;0.018;2023-04-24T11:39:37;23.02;;;7.43;;
26060;SDS011;36331;51.378;0.018;2023-04-24T11:42:12;15.43;;;6.22;;
26060;SDS011;36331;51.378;0.018;2023-04-24T11:44:45;18.90;;;5.47;;
26060;SDS011;36331;51.378;0.018;2023-04-24T11:47:17;15.40;;;5.20;;
26060;SDS011;36331;51.378;0.018;2023-04-24T11:52:36;20.48;;;6.82;;
26060;SDS011;36331;51.378;0.018;2023-04-24T11:55:32;27.98;;;8.15;;
26060;SDS011;36331;51.378;0.018;2023-04-24T11:58:05;28.40;;;8.07;;
26060;SDS011;36331;51.378;0.018;2023-04-24T12:00:38;23.23;;;7.35;;
26060;SDS011;36331;51.378;0.018;2023-04-24T12:05:38;29.13;;;8.70;;
26060;SDS011;36331;51.378;0.018;2023-04-24T12:08:08;43.13;;;11.40;;
26060;SDS011;36331;51.378;0.018;2023-04-24T12:10:39;27.48;;;7.97;;
26060;SDS011;36331;51.378;0.018;2023-04-24T12:13:09;34.67;;;10.18;;
26060;SDS011;36331;51.378;0.018;2023-04-24T12:15:39;26.90;;;7.47;;
26060;SDS011;36331;51.378;0.018;2023-04-24T12:18:11;23.00;;;7.43;;
26060;SDS011;36331;51.378;0.018;2023-04-24T12:20:43;34.67;;;9.88;;
26060;SDS011;36331;51.378;0.018;2023-04-24T12:23:12;38.67;;;9.90;;
26060;SDS011;36331;51.378;0.018;2023-04-24T12:25:43;32.13;;;9.02;;
26060;SDS011;36331;51.378;0.018;2023-04-24T12:28:12;35.88;;;9.88;;
26060;SDS011;36331;51.378;0.018;2023-04-24T12:30:42;26.80;;;7.88;;
26060;SDS011;36331;51.378;0.018;2023-04-24T12:33:12;25.88;;;8.05;;
26060;SDS011;36331;51.378;0.018;2023-04-24T12:35:41;24.88;;;7.32;;
26060;SDS011;36331;51.378;0.018;2023-04-24T12:38:11;27.20;;;8.35;;
26060;SDS011;36331;51.378;0.018;2023-04-24T12:40:41;25.05;;;8.13;;
26060;SDS011;36331;51.378;0.018;2023-04-24T12:43:16;26.75;;;8.63;;
26060;SDS011;36331;51.378;0.018;2023-04-24T12:45:49;31.88;;;9.45;;
26060;SDS011;36331;51.378;0.018;2023-04-24T12:48:18;29.35;;;8.73;;
26060;SDS011;36331;51.378;0.018;2023-04-24T12:50:49;35.13;;;10.57;;
26060;SDS011;36331;51.378;0.018;2023-04-24T12:53:19;27.83;;;8.55;;
26060;SDS011;36331;51.378;0.018;2023-04-24T12:55:51;29.58;;;7.80;;
26060;SDS011;36331;51.378;0.018;2023-04-24T12:58:21;33.78;;;8.88;;
26060;SDS011;36331;51.378;0.018;2023-04-24T13:00:51;29.13;;;8.55;;
26060;SDS011;36331;51.378;0.018;2023-04-24T13:03:21;27.77;;;8.90;;
26060;SDS011;36331;51.378;0.018;2023-04-24T13:05:51;28.17;;;7.88;;
26060;SDS011;36331;51.378;0.018;2023-04-24T13:08:20;27.92;;;6.90;;
26060;SDS011;36331;51.378;0.018;2023-04-24T13:10:49;27.50;;;8.30;;
26060;SDS011;36331;51.378;0.018;2023-04-24T13:13:19;28.42;;;8.43;;
26060;SDS011;36331;51.378;0.018;2023-04-24T13:15:49;46.78;;;9.88;;
26060;SDS011;36331;51.378;0.018;2023-04-24T13:18:19;25.15;;;8.75;;
26060;SDS011;36331;51.378;0.018;2023-04-24T13:20:48;29.02;;;9.02;;
26060;SDS011;36331;51.378;0.018;2023-04-24T13:23:17;29.55;;;8.75;;
26060;SDS011;36331;51.378;0.018;2023-04-24T13:25:47;30.70;;;8.50;;
26060;SDS011;36331;51.378;0.018;2023-04-24T13:28:16;31.05;;;8.52;;
26060;SDS011;36331;51.378;0.018;2023-04-24T13:30:50;37.72;;;10.32;;
26060;SDS011;36331;51.378;0.018;2023-04-24T13:33:20;35.50;;;9.68;;
26060;SDS011;36331;51.378;0.018;2023-04-24T13:35:50;36.33;;;9.52;;
26060;SDS011;36331;51.378;0.018;2023-04-24T13:38:23;30.77;;;8.77;;
26060;SDS011;36331;51.378;0.018;2023-04-24T13:40:52;25.77;;;7.60;;
26060;SDS011;36331;51.378;0.018;2023-04-24T13:43:22;28.42;;;8.25;;
26060;SDS011;36331;51.378;0.018;2023-04-24T13:45:53;25.77;;;7.97;;
26060;SDS011;36331;51.378;0.018;2023-04-24T13:48:22;26.33;;;8.15;;
26060;SDS011;36331;51.378;0.018;2023-04-24T13:50:51;26.67;;;8.32;;
26060;SDS011;36331;51.378;0.018;2023-04-24T13:53:20;25.42;;;8.40;;
26060;SDS011;36331;51.378;0.018;2023-04-24T13:55:49;27.08;;;8.32;;
26060;SDS011;36331;51.378;0.018;2023-04-24T13:58:18;35.13;;;10.18;;
26060;SDS011;36331;51.378;0.018;2023-04-24T14:00:48;31.65;;;9.35;;
26060;SDS011;36331;51.378;0.018;2023-04-24T14:03:18;31.45;;;9.20;;
26060;SDS011;36331;51.378;0.018;2023-04-24T14:05:47;35.20;;;9.73;;
26060;SDS011;36331;51.378;0.018;2023-04-24T14:08:20;36.72;;;9.63;;
26060;SDS011;36331;51.378;0.018;2023-04-24T14:10:53;38.70;;;10.20;;
26060;SDS011;36331;51.378;0.018;2023-04-24T14:13:22;26.23;;;8.32;;
26060;SDS011;36331;51.378;0.018;2023-04-24T14:15:54;36.63;;;9.50;;
26060;SDS011;36331;51.378;0.018;2023-04-24T14:18:24;29.67;;;8.20;;
26060;SDS011;36331;51.378;0.018;2023-04-24T14:20:54;32.85;;;9.32;;
26060;SDS011;36331;51.378;0.018;2023-04-24T14:23:23;35.30;;;9.93;;
26060;SDS011;36331;51.378;0.018;2023-04-24T14:25:52;35.55;;;9.73;;
26060;SDS011;36331;51.378;0.018;2023-04-24T14:28:24;32.72;;;9.43;;
26060;SDS011;36331;51.378;0.018;2023-04-24T14:30:54;30.58;;;9.48;;
26060;SDS011;36331;51.378;0.018;2023-04-24T14:33:24;35.53;;;10.15;;
26060;SDS011;36331;51.378;0.018;2023-04-24T14:35:54;27.17;;;7.97;;
26060;SDS011;36331;51.378;0.018;2023-04-24T14:38:23;32.78;;;8.90;;
26060;SDS011;36331;51.378;0.018;2023-04-24T14:40:52;38.30;;;10.50;;
26060;SDS011;36331;51.378;0.018;2023-04-24T14:43:33;37.85;;;10.23;;
26060;SDS011;36331;51.378;0.018;2023-04-24T14:46:02;34.97;;;10.05;;
26060;SDS011;36331;51.378;0.018;2023-04-24T14:48:32;37.85;;;9.80;;
26060;SDS011;36331;51.378;0.018;2023-04-24T14:51:02;26.77;;;8.20;;
26060;SDS011;36331;51.378;0.018;2023-04-24T14:53:31;52.33;;;13.15;;
26060;SDS011;36331;51.378;0.018;2023-04-24T14:56:00;30.58;;;8.48;;
26060;SDS011;36331;51.378;0.018;2023-04-24T14:58:29;35.33;;;9.50;;
26060;SDS011;36331;51.378;0.018;2023-04-24T15:00:59;36.58;;;9.35;;
26060;SDS011;36331;51.378;0.018;2023-04-24T15:03:28;36.05;;;9.35;;
26060;SDS011;36331;51.378;0.018;2023-04-24T15:05:59;29.08;;;7.78;;
26060;SDS011;36331;51.378;0.018;2023-04-24T15:08:29;31.88;;;8.70;;
26060;SDS011;36331;51.378;0.018;2023-04-24T15:10:58;31.23;;;8.93;;
26060;SDS011;36331;51.378;0.018;2023-04-24T15:13:27;31.77;;;8.45;;
26060;SDS011;36331;51.378;0.018;2023-04-24T15:15:56;42.08;;;11.18;;
26060;SDS011;36331;51.378;0.018;2023-04-24T15:18:25;32.95;;;9.05;;
26060;SDS011;36331;51.378;0.018;2023-04-24T15:20:56;36.78;;;9.55;;
26060;SDS011;36331;51.378;0.018;2023-04-24T15:23:28;37.97;;;10.25;;